sensor_id;sensor_type;location;lat;lon;timestamp;temperature;humidity
56162;DHT22;42045;52.986;6.014;2023-05-01T00:02:01;8.90;99.90
56162;DHT22;42045;52.986;6.014;2023-05-01T00:04:27;8.90;99.90
56162;DHT22;42045;52.986;6.014;2023-05-01T00:06:53;8.90;99.90
56162;DHT22;42045;52.986;6.014;2023-05-01T00:09:18;8.90;99.90
56162;DHT22;42045;52.986;6.014;2023-05-01T00:11:44;8.90;99.90
56162;DHT22;42045;52.986;6.014;2023-05-01T00:14:11;8.90;99.90
56162;DHT22;42045;52.986;6.014;2023-05-01T00:16:36;8.90;99.90
56162;DHT22;42045;52.986;6.014;2023-05-01T00:19:02;8.90;99.90
56162;DHT22;42045;52.986;6.014;2023-05-01T00:21:29;8.90;99.90
56162;DHT22;42045;52.986;6.014;2023-05-01T00:23:55;8.90;99.90
56162;DHT22;42045;52.986;6.014;2023-05-01T00:26:21;8.90;99.90
56162;DHT22;42045;52.986;6.014;2023-05-01T00:28:47;8.90;99.90
56162;DHT22;42045;52.986;6.014;2023-05-01T00:31:13;8.90;99.90
56162;DHT22;42045;52.986;6.014;2023-05-01T00:33:38;8.90;99.90
56162;DHT22;42045;52.986;6.014;2023-05-01T00:36:05;8.80;99.90
56162;DHT22;42045;52.986;6.014;2023-05-01T00:38:30;8.80;99.90
56162;DHT22;42045;52.986;6.014;2023-05-01T00:40:56;8.80;99.90
56162;DHT22;42045;52.986;6.014;2023-05-01T00:43:22;8.80;99.90
56162;DHT22;42045;52.986;6.014;2023-05-01T00:45:47;8.80;99.90
56162;DHT22;42045;52.986;6.014;2023-05-01T00:48:14;8.70;99.90
56162;DHT22;42045;52.986;6.014;2023-05-01T00:50:40;8.70;99.90
56162;DHT22;42045;52.986;6.014;2023-05-01T00:53:07;8.70;99.90
56162;DHT22;42045;52.986;6.014;2023-05-01T00:55:33;8.70;99.90
56162;DHT22;42045;52.986;6.014;2023-05-01T00:58:00;8.60;99.90
56162;DHT22;42045;52.986;6.014;2023-05-01T01:00:26;8.60;99.90
56162;DHT22;42045;52.986;6.014;2023-05-01T01:02:53;8.60;99.90
56162;DHT22;42045;52.986;6.014;2023-05-01T01:05:20;8.60;99.90
56162;DHT22;42045;52.986;6.014;2023-05-01T01:10:59;8.60;99.90
56162;DHT22;42045;52.986;6.014;2023-05-01T01:13:38;8.50;99.90
56162;DHT22;42045;52.986;6.014;2023-05-01T01:16:15;8.50;99.90
56162;DHT22;42045;52.986;6.014;2023-05-01T01:21:39;8.40;99.90
56162;DHT22;42045;52.986;6.014;2023-05-01T01:24:43;8.40;99.90
56162;DHT22;42045;52.986;6.014;2023-05-01T01:35:45;8.30;99.90
56162;DHT22;42045;52.986;6.014;2023-05-01T01:38:19;8.30;99.90
56162;DHT22;42045;52.986;6.014;2023-05-01T01:40:54;8.30;99.90
56162;DHT22;42045;52.986;6.014;2023-05-01T01:43:22;8.30;99.90
56162;DHT22;42045;52.986;6.014;2023-05-01T01:46:01;8.20;99.90
56162;DHT22;42045;52.986;6.014;2023-05-01T01:48:33;8.20;99.90
56162;DHT22;42045;52.986;6.014;2023-05-01T01:51:04;8.30;99.90
56162;DHT22;42045;52.986;6.014;2023-05-01T01:53:32;8.20;99.90
56162;DHT22;42045;52.986;6.014;2023-05-01T01:56:02;8.20;99.90
56162;DHT22;42045;52.986;6.014;2023-05-01T01:58:29;8.20;99.90
56162;DHT22;42045;52.986;6.014;2023-05-01T02:00:55;8.20;99.90
56162;DHT22;42045;52.986;6.014;2023-05-01T02:03:23;8.20;99.90
56162;DHT22;42045;52.986;6.014;2023-05-01T02:05:49;8.20;99.90
56162;DHT22;42045;52.986;6.014;2023-05-01T02:08:17;8.20;99.90
56162;DHT22;42045;52.986;6.014;2023-05-01T02:10:44;8.20;99.90
56162;DHT22;42045;52.986;6.014;2023-05-01T02:13:12;8.10;99.90
56162;DHT22;42045;52.986;6.014;2023-05-01T02:15:39;8.20;99.90
56162;DHT22;42045;52.986;6.014;2023-05-01T02:18:05;8.10;99.90
56162;DHT22;42045;52.986;6.014;2023-05-01T02:20:32;8.10;99.90
56162;DHT22;42045;52.986;6.014;2023-05-01T02:22:59;8.10;99.90
56162;DHT22;42045;52.986;6.014;2023-05-01T02:25:26;8.10;99.90
56162;DHT22;42045;52.986;6.014;2023-05-01T02:28:08;8.10;99.90
56162;DHT22;42045;52.986;6.014;2023-05-01T02:30:37;8.00;99.90
56162;DHT22;42045;52.986;6.014;2023-05-01T02:33:07;8.00;99.90
56162;DHT22;42045;52.986;6.014;2023-05-01T02:35:41;8.00;99.90
56162;DHT22;42045;52.986;6.014;2023-05-01T02:38:09;8.00;99.90
56162;DHT22;42045;52.986;6.014;2023-05-01T02:40:36;8.00;99.90
56162;DHT22;42045;52.986;6.014;2023-05-01T02:43:05;8.00;99.90
56162;DHT22;42045;52.986;6.014;2023-05-01T02:45:31;8.00;99.90
56162;DHT22;42045;52.986;6.014;2023-05-01T02:48:00;7.90;99.90
56162;DHT22;42045;52.986;6.014;2023-05-01T02:50:28;7.90;99.90
56162;DHT22;42045;52.986;6.014;2023-05-01T02:52:55;7.80;99.90
56162;DHT22;42045;52.986;6.014;2023-05-01T02:55:21;7.80;99.90
56162;DHT22;42045;52.986;6.014;2023-05-01T02:57:49;7.80;99.90
56162;DHT22;42045;52.986;6.014;2023-05-01T03:00:15;7.80;99.90
56162;DHT22;42045;52.986;6.014;2023-05-01T03:02:41;7.80;99.90
56162;DHT22;42045;52.986;6.014;2023-05-01T03:05:07;7.80;99.90
56162;DHT22;42045;52.986;6.014;2023-05-01T03:07:33;7.80;99.90
56162;DHT22;42045;52.986;6.014;2023-05-01T03:10:05;7.70;99.90
56162;DHT22;42045;52.986;6.014;2023-05-01T03:12:32;7.70;99.90
56162;DHT22;42045;52.986;6.014;2023-05-01T03:14:58;7.70;99.90
56162;DHT22;42045;52.986;6.014;2023-05-01T03:17:24;7.70;99.90
56162;DHT22;42045;52.986;6.014;2023-05-01T03:19:50;7.60;99.90
56162;DHT22;42045;52.986;6.014;2023-05-01T03:22:16;7.60;99.90
56162;DHT22;42045;52.986;6.014;2023-05-01T03:24:42;7.60;99.90
56162;DHT22;42045;52.986;6.014;2023-05-01T03:27:08;7.60;99.90
56162;DHT22;42045;52.986;6.014;2023-05-01T03:29:34;7.60;99.90
56162;DHT22;42045;52.986;6.014;2023-05-01T03:32:02;7.50;99.90
56162;DHT22;42045;52.986;6.014;2023-05-01T03:34:28;7.50;99.90
56162;DHT22;42045;52.986;6.014;2023-05-01T03:36:54;7.50;99.90
56162;DHT22;42045;52.986;6.014;2023-05-01T03:39:19;7.50;99.90
56162;DHT22;42045;52.986;6.014;2023-05-01T03:41:45;7.40;99.90
56162;DHT22;42045;52.986;6.014;2023-05-01T03:44:11;7.40;99.90
56162;DHT22;42045;52.986;6.014;2023-05-01T03:46:36;7.40;99.90
56162;DHT22;42045;52.986;6.014;2023-05-01T03:49:02;7.40;99.90
56162;DHT22;42045;52.986;6.014;2023-05-01T03:51:28;7.40;99.90
56162;DHT22;42045;52.986;6.014;2023-05-01T03:53:54;7.30;99.90
56162;DHT22;42045;52.986;6.014;2023-05-01T03:56:23;7.20;99.90
56162;DHT22;42045;52.986;6.014;2023-05-01T03:58:51;7.10;99.90
56162;DHT22;42045;52.986;6.014;2023-05-01T04:01:17;7.00;99.90
56162;DHT22;42045;52.986;6.014;2023-05-01T04:03:42;7.00;99.90
56162;DHT22;42045;52.986;6.014;2023-05-01T04:06:09;6.90;99.90
56162;DHT22;42045;52.986;6.014;2023-05-01T04:08:34;6.90;99.90
56162;DHT22;42045;52.986;6.014;2023-05-01T04:11:00;6.90;99.90
56162;DHT22;42045;52.986;6.014;2023-05-01T04:13:26;7.00;99.90
56162;DHT22;42045;52.986;6.014;2023-05-01T04:15:52;7.00;99.90
56162;DHT22;42045;52.986;6.014;2023-05-01T04:18:19;7.10;99.90
56162;DHT22;42045;52.986;6.014;2023-05-01T04:20:45;7.10;99.90
56162;DHT22;42045;52.986;6.014;2023-05-01T04:23:11;7.10;99.90
56162;DHT22;42045;52.986;6.014;2023-05-01T04:25:37;7.10;99.90
56162;DHT22;42045;52.986;6.014;2023-05-01T04:28:02;7.10;99.90
56162;DHT22;42045;52.986;6.014;2023-05-01T04:30:29;7.10;99.90
56162;DHT22;42045;52.986;6.014;2023-05-01T04:32:55;7.10;99.90
56162;DHT22;42045;52.986;6.014;2023-05-01T04:35:23;7.20;99.90
56162;DHT22;42045;52.986;6.014;2023-05-01T04:37:50;7.20;99.90
56162;DHT22;42045;52.986;6.014;2023-05-01T04:40:16;7.20;99.90
56162;DHT22;42045;52.986;6.014;2023-05-01T04:42:42;7.20;99.90
56162;DHT22;42045;52.986;6.014;2023-05-01T04:45:08;7.30;99.90
56162;DHT22;42045;52.986;6.014;2023-05-01T04:47:34;7.40;99.90
56162;DHT22;42045;52.986;6.014;2023-05-01T04:49:59;7.40;99.90
56162;DHT22;42045;52.986;6.014;2023-05-01T04:52:25;7.60;99.90
56162;DHT22;42045;52.986;6.014;2023-05-01T04:54:51;7.60;99.90
56162;DHT22;42045;52.986;6.014;2023-05-01T04:57:17;7.70;99.90
56162;DHT22;42045;52.986;6.014;2023-05-01T04:59:43;7.80;99.90
56162;DHT22;42045;52.986;6.014;2023-05-01T05:02:08;7.90;99.90
56162;DHT22;42045;52.986;6.014;2023-05-01T05:04:34;8.00;99.90
56162;DHT22;42045;52.986;6.014;2023-05-01T05:06:59;8.10;99.90
56162;DHT22;42045;52.986;6.014;2023-05-01T05:09:25;8.20;99.90
56162;DHT22;42045;52.986;6.014;2023-05-01T05:11:51;8.20;99.90
56162;DHT22;42045;52.986;6.014;2023-05-01T05:14:16;8.20;99.90
56162;DHT22;42045;52.986;6.014;2023-05-01T05:16:42;8.30;99.90
56162;DHT22;42045;52.986;6.014;2023-05-01T05:19:08;8.40;99.90
56162;DHT22;42045;52.986;6.014;2023-05-01T05:21:34;8.70;99.90
56162;DHT22;42045;52.986;6.014;2023-05-01T05:23:59;8.80;99.90
56162;DHT22;42045;52.986;6.014;2023-05-01T05:26:25;8.90;99.90
56162;DHT22;42045;52.986;6.014;2023-05-01T05:28:51;9.00;99.90
56162;DHT22;42045;52.986;6.014;2023-05-01T05:31:17;9.20;99.90
56162;DHT22;42045;52.986;6.014;2023-05-01T05:33:42;9.50;99.90
56162;DHT22;42045;52.986;6.014;2023-05-01T05:36:09;9.80;99.90
56162;DHT22;42045;52.986;6.014;2023-05-01T05:38:35;10.10;99.90
56162;DHT22;42045;52.986;6.014;2023-05-01T05:41:00;10.50;99.90
56162;DHT22;42045;52.986;6.014;2023-05-01T05:43:26;10.90;99.90
56162;DHT22;42045;52.986;6.014;2023-05-01T05:45:58;11.30;99.90
56162;DHT22;42045;52.986;6.014;2023-05-01T05:48:24;11.70;99.90
56162;DHT22;42045;52.986;6.014;2023-05-01T05:50:50;12.40;99.90
56162;DHT22;42045;52.986;6.014;2023-05-01T05:53:18;13.40;99.90
56162;DHT22;42045;52.986;6.014;2023-05-01T05:55:43;14.50;99.90
56162;DHT22;42045;52.986;6.014;2023-05-01T05:58:10;15.70;99.90
56162;DHT22;42045;52.986;6.014;2023-05-01T06:00:36;16.60;99.90
56162;DHT22;42045;52.986;6.014;2023-05-01T06:03:02;17.10;99.90
56162;DHT22;42045;52.986;6.014;2023-05-01T06:05:28;17.80;99.90
56162;DHT22;42045;52.986;6.014;2023-05-01T06:07:54;17.80;99.90
56162;DHT22;42045;52.986;6.014;2023-05-01T06:10:19;17.60;99.90
56162;DHT22;42045;52.986;6.014;2023-05-01T06:12:45;17.40;99.90
56162;DHT22;42045;52.986;6.014;2023-05-01T06:15:13;17.20;99.90
56162;DHT22;42045;52.986;6.014;2023-05-01T06:17:42;17.20;99.90
56162;DHT22;42045;52.986;6.014;2023-05-01T06:20:08;17.10;99.90
56162;DHT22;42045;52.986;6.014;2023-05-01T06:22:34;16.70;99.90
56162;DHT22;42045;52.986;6.014;2023-05-01T06:25:00;16.50;99.90
56162;DHT22;42045;52.986;6.014;2023-05-01T06:27:26;16.60;99.90
56162;DHT22;42045;52.986;6.014;2023-05-01T06:29:51;17.00;99.90
56162;DHT22;42045;52.986;6.014;2023-05-01T06:32:17;17.40;99.90
56162;DHT22;42045;52.986;6.014;2023-05-01T06:34:43;17.60;99.90
56162;DHT22;42045;52.986;6.014;2023-05-01T06:37:08;18.30;99.90
56162;DHT22;42045;52.986;6.014;2023-05-01T06:39:34;18.90;99.90
56162;DHT22;42045;52.986;6.014;2023-05-01T06:42:00;19.10;99.90
56162;DHT22;42045;52.986;6.014;2023-05-01T06:44:28;19.30;99.90
56162;DHT22;42045;52.986;6.014;2023-05-01T06:46:53;19.50;99.90
56162;DHT22;42045;52.986;6.014;2023-05-01T06:49:21;19.90;99.90
56162;DHT22;42045;52.986;6.014;2023-05-01T06:51:47;20.10;99.90
56162;DHT22;42045;52.986;6.014;2023-05-01T06:54:12;20.40;99.50
56162;DHT22;42045;52.986;6.014;2023-05-01T06:56:38;20.60;99.40
56162;DHT22;42045;52.986;6.014;2023-05-01T06:59:04;21.20;99.40
56162;DHT22;42045;52.986;6.014;2023-05-01T07:01:30;20.70;98.30
56162;DHT22;42045;52.986;6.014;2023-05-01T07:03:55;20.30;99.40
56162;DHT22;42045;52.986;6.014;2023-05-01T07:06:21;20.10;99.90
56162;DHT22;42045;52.986;6.014;2023-05-01T07:08:47;19.50;99.10
56162;DHT22;42045;52.986;6.014;2023-05-01T07:11:13;19.60;99.90
56162;DHT22;42045;52.986;6.014;2023-05-01T07:13:38;19.70;99.80
56162;DHT22;42045;52.986;6.014;2023-05-01T07:16:04;19.50;98.90
56162;DHT22;42045;52.986;6.014;2023-05-01T07:18:30;19.40;99.90
56162;DHT22;42045;52.986;6.014;2023-05-01T07:20:55;19.10;99.90
56162;DHT22;42045;52.986;6.014;2023-05-01T07:23:21;19.10;99.90
56162;DHT22;42045;52.986;6.014;2023-05-01T07:25:48;19.00;99.90
56162;DHT22;42045;52.986;6.014;2023-05-01T07:28:13;18.80;99.90
56162;DHT22;42045;52.986;6.014;2023-05-01T07:30:39;18.60;99.90
56162;DHT22;42045;52.986;6.014;2023-05-01T07:33:05;18.50;99.90
56162;DHT22;42045;52.986;6.014;2023-05-01T07:35:31;18.40;99.90
56162;DHT22;42045;52.986;6.014;2023-05-01T07:37:57;18.50;99.90
56162;DHT22;42045;52.986;6.014;2023-05-01T07:40:23;18.40;99.90
56162;DHT22;42045;52.986;6.014;2023-05-01T07:42:49;18.20;99.90
56162;DHT22;42045;52.986;6.014;2023-05-01T07:45:15;18.40;99.90
56162;DHT22;42045;52.986;6.014;2023-05-01T07:47:41;18.20;99.90
56162;DHT22;42045;52.986;6.014;2023-05-01T07:50:10;18.20;99.90
56162;DHT22;42045;52.986;6.014;2023-05-01T07:52:36;18.10;99.90
56162;DHT22;42045;52.986;6.014;2023-05-01T07:55:02;18.10;99.90
56162;DHT22;42045;52.986;6.014;2023-05-01T07:57:29;18.00;99.60
56162;DHT22;42045;52.986;6.014;2023-05-01T07:59:55;17.90;99.90
56162;DHT22;42045;52.986;6.014;2023-05-01T08:02:21;17.90;99.90
56162;DHT22;42045;52.986;6.014;2023-05-01T08:04:47;17.90;99.90
56162;DHT22;42045;52.986;6.014;2023-05-01T08:07:13;18.00;99.50
56162;DHT22;42045;52.986;6.014;2023-05-01T08:09:39;17.90;99.60
56162;DHT22;42045;52.986;6.014;2023-05-01T08:12:05;17.90;99.50
56162;DHT22;42045;52.986;6.014;2023-05-01T08:14:30;18.00;99.90
56162;DHT22;42045;52.986;6.014;2023-05-01T08:16:56;18.10;99.90
56162;DHT22;42045;52.986;6.014;2023-05-01T08:19:22;18.10;99.90
56162;DHT22;42045;52.986;6.014;2023-05-01T08:21:48;18.10;99.90
56162;DHT22;42045;52.986;6.014;2023-05-01T08:24:13;18.00;99.00
56162;DHT22;42045;52.986;6.014;2023-05-01T08:26:39;18.20;99.20
56162;DHT22;42045;52.986;6.014;2023-05-01T08:29:05;18.20;99.80
56162;DHT22;42045;52.986;6.014;2023-05-01T08:31:30;18.20;98.70
56162;DHT22;42045;52.986;6.014;2023-05-01T08:33:56;18.30;99.90
56162;DHT22;42045;52.986;6.014;2023-05-01T08:36:22;18.60;99.90
56162;DHT22;42045;52.986;6.014;2023-05-01T08:38:48;18.70;99.80
56162;DHT22;42045;52.986;6.014;2023-05-01T08:41:21;18.70;99.30
56162;DHT22;42045;52.986;6.014;2023-05-01T08:43:48;18.80;99.00
56162;DHT22;42045;52.986;6.014;2023-05-01T08:46:25;18.60;99.10
56162;DHT22;42045;52.986;6.014;2023-05-01T08:48:56;18.90;99.20
56162;DHT22;42045;52.986;6.014;2023-05-01T08:51:24;18.90;99.50
56162;DHT22;42045;52.986;6.014;2023-05-01T08:53:51;18.80;99.50
56162;DHT22;42045;52.986;6.014;2023-05-01T08:56:19;18.70;99.00
56162;DHT22;42045;52.986;6.014;2023-05-01T08:58:48;18.70;99.40
56162;DHT22;42045;52.986;6.014;2023-05-01T09:01:15;19.00;99.60
56162;DHT22;42045;52.986;6.014;2023-05-01T09:03:42;19.00;98.80
56162;DHT22;42045;52.986;6.014;2023-05-01T09:06:10;19.10;98.30
56162;DHT22;42045;52.986;6.014;2023-05-01T09:08:36;19.10;99.30
56162;DHT22;42045;52.986;6.014;2023-05-01T09:11:02;19.10;99.00
56162;DHT22;42045;52.986;6.014;2023-05-01T09:13:29;19.10;99.30
56162;DHT22;42045;52.986;6.014;2023-05-01T09:15:55;19.20;99.40
56162;DHT22;42045;52.986;6.014;2023-05-01T09:18:21;19.30;99.40
56162;DHT22;42045;52.986;6.014;2023-05-01T09:20:48;19.40;99.70
56162;DHT22;42045;52.986;6.014;2023-05-01T09:23:13;19.40;99.40
56162;DHT22;42045;52.986;6.014;2023-05-01T09:25:39;19.40;99.00
56162;DHT22;42045;52.986;6.014;2023-05-01T09:28:05;19.50;99.70
56162;DHT22;42045;52.986;6.014;2023-05-01T09:30:36;19.30;98.40
56162;DHT22;42045;52.986;6.014;2023-05-01T09:33:12;19.30;99.60
56162;DHT22;42045;52.986;6.014;2023-05-01T09:35:48;19.20;99.90
56162;DHT22;42045;52.986;6.014;2023-05-01T09:38:26;18.90;99.90
56162;DHT22;42045;52.986;6.014;2023-05-01T09:40:53;19.00;99.90
56162;DHT22;42045;52.986;6.014;2023-05-01T09:43:25;19.30;99.90
56162;DHT22;42045;52.986;6.014;2023-05-01T09:48:28;19.50;99.90
56162;DHT22;42045;52.986;6.014;2023-05-01T09:50:54;19.50;99.90
56162;DHT22;42045;52.986;6.014;2023-05-01T09:53:39;19.60;99.90
56162;DHT22;42045;52.986;6.014;2023-05-01T09:56:05;19.40;99.80
56162;DHT22;42045;52.986;6.014;2023-05-01T09:58:31;19.60;99.90
56162;DHT22;42045;52.986;6.014;2023-05-01T10:00:57;19.90;99.90
56162;DHT22;42045;52.986;6.014;2023-05-01T10:03:23;20.20;99.90
56162;DHT22;42045;52.986;6.014;2023-05-01T10:05:49;20.20;99.70
56162;DHT22;42045;52.986;6.014;2023-05-01T10:08:14;20.20;98.60
56162;DHT22;42045;52.986;6.014;2023-05-01T10:10:40;20.20;98.20
56162;DHT22;42045;52.986;6.014;2023-05-01T10:13:17;20.00;97.70
56162;DHT22;42045;52.986;6.014;2023-05-01T10:15:46;20.10;98.20
56162;DHT22;42045;52.986;6.014;2023-05-01T10:18:12;20.00;98.60
56162;DHT22;42045;52.986;6.014;2023-05-01T10:20:38;20.10;99.00
56162;DHT22;42045;52.986;6.014;2023-05-01T10:23:04;20.10;99.00
56162;DHT22;42045;52.986;6.014;2023-05-01T10:25:31;20.10;99.30
56162;DHT22;42045;52.986;6.014;2023-05-01T10:27:57;20.20;99.50
56162;DHT22;42045;52.986;6.014;2023-05-01T10:30:25;20.20;99.20
56162;DHT22;42045;52.986;6.014;2023-05-01T10:32:51;20.10;99.40
56162;DHT22;42045;52.986;6.014;2023-05-01T10:35:22;20.20;99.30
56162;DHT22;42045;52.986;6.014;2023-05-01T10:37:56;20.20;99.60
56162;DHT22;42045;52.986;6.014;2023-05-01T10:43:27;20.00;98.30
56162;DHT22;42045;52.986;6.014;2023-05-01T10:53:37;20.20;98.20
56162;DHT22;42045;52.986;6.014;2023-05-01T10:56:03;20.30;98.90
56162;DHT22;42045;52.986;6.014;2023-05-01T11:03:54;20.60;99.00
56162;DHT22;42045;52.986;6.014;2023-05-01T11:06:20;20.60;98.30
56162;DHT22;42045;52.986;6.014;2023-05-01T11:08:45;20.70;98.30
56162;DHT22;42045;52.986;6.014;2023-05-01T11:14:01;20.50;97.80
56162;DHT22;42045;52.986;6.014;2023-05-01T11:19:09;20.30;98.80
56162;DHT22;42045;52.986;6.014;2023-05-01T11:21:37;20.30;98.60
56162;DHT22;42045;52.986;6.014;2023-05-01T11:24:04;20.10;98.50
56162;DHT22;42045;52.986;6.014;2023-05-01T11:26:30;20.20;98.80
56162;DHT22;42045;52.986;6.014;2023-05-01T11:28:58;20.20;99.30
56162;DHT22;42045;52.986;6.014;2023-05-01T11:31:25;20.30;99.10
56162;DHT22;42045;52.986;6.014;2023-05-01T11:33:52;20.20;98.40
56162;DHT22;42045;52.986;6.014;2023-05-01T11:36:20;20.10;98.30
56162;DHT22;42045;52.986;6.014;2023-05-01T11:38:54;20.10;98.60
56162;DHT22;42045;52.986;6.014;2023-05-01T11:41:24;20.20;99.20
56162;DHT22;42045;52.986;6.014;2023-05-01T11:43:56;20.10;97.90
56162;DHT22;42045;52.986;6.014;2023-05-01T11:46:25;20.10;98.20
56162;DHT22;42045;52.986;6.014;2023-05-01T11:48:55;20.20;98.90
56162;DHT22;42045;52.986;6.014;2023-05-01T11:51:21;20.20;98.50
56162;DHT22;42045;52.986;6.014;2023-05-01T11:54:10;20.10;98.70
56162;DHT22;42045;52.986;6.014;2023-05-01T11:56:36;20.00;97.70
56162;DHT22;42045;52.986;6.014;2023-05-01T11:59:13;20.10;98.40
56162;DHT22;42045;52.986;6.014;2023-05-01T12:01:44;20.10;99.00
56162;DHT22;42045;52.986;6.014;2023-05-01T12:04:12;20.20;98.90
56162;DHT22;42045;52.986;6.014;2023-05-01T12:06:45;20.20;99.70
56162;DHT22;42045;52.986;6.014;2023-05-01T12:09:16;20.30;99.90
56162;DHT22;42045;52.986;6.014;2023-05-01T12:11:42;20.20;99.60
56162;DHT22;42045;52.986;6.014;2023-05-01T12:14:09;20.10;99.50
56162;DHT22;42045;52.986;6.014;2023-05-01T12:16:36;20.10;99.30
56162;DHT22;42045;52.986;6.014;2023-05-01T12:19:02;20.10;99.90
56162;DHT22;42045;52.986;6.014;2023-05-01T12:21:28;20.00;99.90
56162;DHT22;42045;52.986;6.014;2023-05-01T12:23:54;19.90;99.90
56162;DHT22;42045;52.986;6.014;2023-05-01T12:26:24;19.80;99.90
56162;DHT22;42045;52.986;6.014;2023-05-01T12:29:04;19.70;99.90
56162;DHT22;42045;52.986;6.014;2023-05-01T12:31:31;19.60;99.90
56162;DHT22;42045;52.986;6.014;2023-05-01T12:34:02;19.60;99.90
56162;DHT22;42045;52.986;6.014;2023-05-01T12:36:30;19.50;99.90
56162;DHT22;42045;52.986;6.014;2023-05-01T12:39:04;19.50;99.90
56162;DHT22;42045;52.986;6.014;2023-05-01T12:41:37;19.30;99.90
56162;DHT22;42045;52.986;6.014;2023-05-01T12:47:04;19.20;99.90
56162;DHT22;42045;52.986;6.014;2023-05-01T12:49:32;19.10;99.90
56162;DHT22;42045;52.986;6.014;2023-05-01T12:51:59;19.10;99.90
56162;DHT22;42045;52.986;6.014;2023-05-01T12:54:30;19.10;99.90
56162;DHT22;42045;52.986;6.014;2023-05-01T12:57:12;19.00;99.90
56162;DHT22;42045;52.986;6.014;2023-05-01T12:59:45;18.90;99.90
56162;DHT22;42045;52.986;6.014;2023-05-01T13:02:14;18.90;99.90
56162;DHT22;42045;52.986;6.014;2023-05-01T13:04:42;18.80;99.90
56162;DHT22;42045;52.986;6.014;2023-05-01T13:07:15;18.70;99.90
56162;DHT22;42045;52.986;6.014;2023-05-01T13:12:16;18.60;99.90
56162;DHT22;42045;52.986;6.014;2023-05-01T13:14:42;18.50;99.90
56162;DHT22;42045;52.986;6.014;2023-05-01T13:17:09;18.50;99.90
56162;DHT22;42045;52.986;6.014;2023-05-01T13:19:37;18.50;99.90
56162;DHT22;42045;52.986;6.014;2023-05-01T13:22:04;18.60;99.90
56162;DHT22;42045;52.986;6.014;2023-05-01T13:24:38;18.60;99.90
56162;DHT22;42045;52.986;6.014;2023-05-01T13:27:04;18.60;99.90
56162;DHT22;42045;52.986;6.014;2023-05-01T13:29:31;18.70;99.90
56162;DHT22;42045;52.986;6.014;2023-05-01T13:31:57;18.80;99.90
56162;DHT22;42045;52.986;6.014;2023-05-01T13:34:29;18.90;99.90
56162;DHT22;42045;52.986;6.014;2023-05-01T13:36:56;19.10;99.90
56162;DHT22;42045;52.986;6.014;2023-05-01T13:39:22;19.20;99.90
56162;DHT22;42045;52.986;6.014;2023-05-01T13:41:48;19.30;99.90
56162;DHT22;42045;52.986;6.014;2023-05-01T13:44:15;19.50;99.90
56162;DHT22;42045;52.986;6.014;2023-05-01T13:46:41;19.40;99.90
56162;DHT22;42045;52.986;6.014;2023-05-01T13:49:07;19.50;99.90
56162;DHT22;42045;52.986;6.014;2023-05-01T13:51:35;19.70;99.90
56162;DHT22;42045;52.986;6.014;2023-05-01T13:54:05;19.60;99.90
56162;DHT22;42045;52.986;6.014;2023-05-01T13:56:34;19.70;99.90
56162;DHT22;42045;52.986;6.014;2023-05-01T13:59:00;19.80;99.90
56162;DHT22;42045;52.986;6.014;2023-05-01T14:01:26;19.90;99.90
56162;DHT22;42045;52.986;6.014;2023-05-01T14:03:53;19.80;99.90
56162;DHT22;42045;52.986;6.014;2023-05-01T14:06:21;19.80;99.90
56162;DHT22;42045;52.986;6.014;2023-05-01T14:08:50;19.80;99.90
56162;DHT22;42045;52.986;6.014;2023-05-01T14:11:16;19.80;99.90
56162;DHT22;42045;52.986;6.014;2023-05-01T14:13:46;19.70;99.90
56162;DHT22;42045;52.986;6.014;2023-05-01T14:16:23;19.60;99.90
56162;DHT22;42045;52.986;6.014;2023-05-01T14:18:52;19.60;99.90
56162;DHT22;42045;52.986;6.014;2023-05-01T14:21:19;19.60;99.90
56162;DHT22;42045;52.986;6.014;2023-05-01T14:23:45;19.60;99.90
56162;DHT22;42045;52.986;6.014;2023-05-01T14:26:18;19.60;99.90
56162;DHT22;42045;52.986;6.014;2023-05-01T14:28:46;19.60;99.90
56162;DHT22;42045;52.986;6.014;2023-05-01T14:31:29;19.30;99.90
56162;DHT22;42045;52.986;6.014;2023-05-01T14:33:57;19.40;99.90
56162;DHT22;42045;52.986;6.014;2023-05-01T14:36:24;19.30;99.90
56162;DHT22;42045;52.986;6.014;2023-05-01T14:38:51;19.20;99.90
56162;DHT22;42045;52.986;6.014;2023-05-01T14:41:17;19.20;99.90
56162;DHT22;42045;52.986;6.014;2023-05-01T14:43:46;19.20;99.90
56162;DHT22;42045;52.986;6.014;2023-05-01T14:46:14;19.10;99.90
56162;DHT22;42045;52.986;6.014;2023-05-01T14:48:42;19.00;99.90
56162;DHT22;42045;52.986;6.014;2023-05-01T14:51:09;19.00;99.90
56162;DHT22;42045;52.986;6.014;2023-05-01T14:53:38;18.90;99.90
56162;DHT22;42045;52.986;6.014;2023-05-01T14:56:06;18.90;99.90
56162;DHT22;42045;52.986;6.014;2023-05-01T14:58:32;18.90;99.90
56162;DHT22;42045;52.986;6.014;2023-05-01T15:00:58;18.80;99.90
56162;DHT22;42045;52.986;6.014;2023-05-01T15:03:23;18.80;99.90
56162;DHT22;42045;52.986;6.014;2023-05-01T15:05:49;18.70;99.90
56162;DHT22;42045;52.986;6.014;2023-05-01T15:08:15;18.70;99.90
56162;DHT22;42045;52.986;6.014;2023-05-01T15:10:41;18.60;99.90
56162;DHT22;42045;52.986;6.014;2023-05-01T15:13:07;18.70;99.90
56162;DHT22;42045;52.986;6.014;2023-05-01T15:15:33;18.80;99.90
56162;DHT22;42045;52.986;6.014;2023-05-01T15:17:59;18.80;99.90
56162;DHT22;42045;52.986;6.014;2023-05-01T15:20:24;18.70;99.90
56162;DHT22;42045;52.986;6.014;2023-05-01T15:22:50;18.60;99.90
56162;DHT22;42045;52.986;6.014;2023-05-01T15:25:16;18.60;99.90
56162;DHT22;42045;52.986;6.014;2023-05-01T15:27:41;18.50;99.90
56162;DHT22;42045;52.986;6.014;2023-05-01T15:30:07;18.40;99.90
56162;DHT22;42045;52.986;6.014;2023-05-01T15:32:35;18.50;99.90
56162;DHT22;42045;52.986;6.014;2023-05-01T15:35:01;18.40;99.90
56162;DHT22;42045;52.986;6.014;2023-05-01T15:37:27;18.40;99.90
56162;DHT22;42045;52.986;6.014;2023-05-01T15:39:52;18.40;99.90
56162;DHT22;42045;52.986;6.014;2023-05-01T15:42:18;18.40;99.90
56162;DHT22;42045;52.986;6.014;2023-05-01T15:44:44;18.40;99.90
56162;DHT22;42045;52.986;6.014;2023-05-01T15:47:10;18.30;99.90
56162;DHT22;42045;52.986;6.014;2023-05-01T15:49:36;18.30;99.90
56162;DHT22;42045;52.986;6.014;2023-05-01T15:52:01;18.20;99.90
56162;DHT22;42045;52.986;6.014;2023-05-01T15:54:27;18.20;99.90
56162;DHT22;42045;52.986;6.014;2023-05-01T15:56:53;18.10;99.90
56162;DHT22;42045;52.986;6.014;2023-05-01T15:59:18;18.10;99.90
56162;DHT22;42045;52.986;6.014;2023-05-01T16:01:44;17.90;99.90
56162;DHT22;42045;52.986;6.014;2023-05-01T16:04:10;17.80;99.90
56162;DHT22;42045;52.986;6.014;2023-05-01T16:06:35;17.80;99.90
56162;DHT22;42045;52.986;6.014;2023-05-01T16:09:02;17.70;99.90
56162;DHT22;42045;52.986;6.014;2023-05-01T16:11:29;17.50;99.90
56162;DHT22;42045;52.986;6.014;2023-05-01T16:13:55;17.40;99.90
56162;DHT22;42045;52.986;6.014;2023-05-01T16:16:23;17.30;99.90
56162;DHT22;42045;52.986;6.014;2023-05-01T16:18:57;17.30;99.90
56162;DHT22;42045;52.986;6.014;2023-05-01T16:21:25;17.20;99.90